sensor_id;sensor_type;location;lat;lon;timestamp;P1;durP1;ratioP1;P2;durP2;ratioP2
10303;SDS011;5197;48.152;8.590;2023-01-30T00:01:14;17.53;;;11.03;;
10303;SDS011;5197;48.152;8.590;2023-01-30T00:03:43;16.20;;;10.77;;
10303;SDS011;5197;48.152;8.590;2023-01-30T00:06:10;17.30;;;10.70;;
10303;SDS011;5197;48.152;8.590;2023-01-30T00:08:38;16.73;;;10.93;;
10303;SDS011;5197;48.152;8.590;2023-01-30T00:11:06;15.53;;;10.37;;
10303;SDS011;5197;48.152;8.590;2023-01-30T00:13:34;16.90;;;10.70;;
10303;SDS011;5197;48.152;8.590;2023-01-30T00:16:02;19.30;;;11.13;;
10303;SDS011;5197;48.152;8.590;2023-01-30T00:18:29;17.43;;;11.77;;
10303;SDS011;5197;48.152;8.590;2023-01-30T00:20:57;17.00;;;10.63;;
10303;SDS011;5197;48.152;8.590;2023-01-30T00:23:26;15.97;;;10.03;;
10303;SDS011;5197;48.152;8.590;2023-01-30T00:25:54;18.97;;;12.83;;
10303;SDS011;5197;48.152;8.590;2023-01-30T00:28:21;20.00;;;12.23;;
10303;SDS011;5197;48.152;8.590;2023-01-30T00:30:49;18.23;;;11.77;;
10303;SDS011;5197;48.152;8.590;2023-01-30T00:33:18;17.80;;;11.33;;
10303;SDS011;5197;48.152;8.590;2023-01-30T00:35:47;18.53;;;11.60;;
10303;SDS011;5197;48.152;8.590;2023-01-30T00:38:16;16.47;;;10.97;;
10303;SDS011;5197;48.152;8.590;2023-01-30T00:40:44;18.73;;;11.40;;
10303;SDS011;5197;48.152;8.590;2023-01-30T00:43:13;15.97;;;11.07;;
10303;SDS011;5197;48.152;8.590;2023-01-30T00:46:02;18.00;;;11.70;;
10303;SDS011;5197;48.152;8.590;2023-01-30T00:48:49;19.03;;;11.77;;
10303;SDS011;5197;48.152;8.590;2023-01-30T00:51:16;18.07;;;11.10;;
10303;SDS011;5197;48.152;8.590;2023-01-30T00:53:43;18.20;;;11.30;;
10303;SDS011;5197;48.152;8.590;2023-01-30T00:56:10;18.57;;;11.37;;
10303;SDS011;5197;48.152;8.590;2023-01-30T00:58:37;18.90;;;11.17;;
10303;SDS011;5197;48.152;8.590;2023-01-30T01:01:04;16.50;;;10.73;;
10303;SDS011;5197;48.152;8.590;2023-01-30T01:03:31;18.47;;;11.50;;
10303;SDS011;5197;48.152;8.590;2023-01-30T01:05:58;17.27;;;11.40;;
10303;SDS011;5197;48.152;8.590;2023-01-30T01:08:24;18.83;;;11.30;;
10303;SDS011;5197;48.152;8.590;2023-01-30T01:10:51;18.73;;;11.10;;
10303;SDS011;5197;48.152;8.590;2023-01-30T01:13:18;18.33;;;12.13;;
10303;SDS011;5197;48.152;8.590;2023-01-30T01:15:45;17.93;;;11.27;;
10303;SDS011;5197;48.152;8.590;2023-01-30T01:18:12;18.90;;;11.60;;
10303;SDS011;5197;48.152;8.590;2023-01-30T01:20:39;18.20;;;10.67;;
10303;SDS011;5197;48.152;8.590;2023-01-30T01:23:09;18.03;;;10.70;;
10303;SDS011;5197;48.152;8.590;2023-01-30T01:25:36;16.37;;;11.10;;
10303;SDS011;5197;48.152;8.590;2023-01-30T01:28:03;17.30;;;11.07;;
10303;SDS011;5197;48.152;8.590;2023-01-30T01:30:30;16.10;;;11.43;;
10303;SDS011;5197;48.152;8.590;2023-01-30T01:32:57;18.03;;;11.43;;
10303;SDS011;5197;48.152;8.590;2023-01-30T01:35:24;17.97;;;10.97;;
10303;SDS011;5197;48.152;8.590;2023-01-30T01:37:52;16.87;;;11.40;;
10303;SDS011;5197;48.152;8.590;2023-01-30T01:40:20;16.90;;;10.03;;
10303;SDS011;5197;48.152;8.590;2023-01-30T01:43:14;16.60;;;10.37;;
10303;SDS011;5197;48.152;8.590;2023-01-30T01:45:45;16.87;;;10.40;;
10303;SDS011;5197;48.152;8.590;2023-01-30T01:48:21;15.60;;;10.43;;
10303;SDS011;5197;48.152;8.590;2023-01-30T01:51:08;16.20;;;9.93;;
10303;SDS011;5197;48.152;8.590;2023-01-30T01:53:41;15.97;;;10.30;;
10303;SDS011;5197;48.152;8.590;2023-01-30T01:56:14;14.43;;;9.70;;
10303;SDS011;5197;48.152;8.590;2023-01-30T01:58:45;13.80;;;9.00;;
10303;SDS011;5197;48.152;8.590;2023-01-30T02:01:16;17.97;;;9.87;;
10303;SDS011;5197;48.152;8.590;2023-01-30T02:03:44;13.63;;;8.47;;
10303;SDS011;5197;48.152;8.590;2023-01-30T02:06:15;15.33;;;8.70;;
10303;SDS011;5197;48.152;8.590;2023-01-30T02:08:44;13.10;;;7.90;;
10303;SDS011;5197;48.152;8.590;2023-01-30T02:12:00;11.93;;;5.73;;
10303;SDS011;5197;48.152;8.590;2023-01-30T02:14:15;12.57;;;8.13;;
10303;SDS011;5197;48.152;8.590;2023-01-30T02:16:45;12.47;;;8.93;;
10303;SDS011;5197;48.152;8.590;2023-01-30T02:19:33;14.43;;;8.80;;
10303;SDS011;5197;48.152;8.590;2023-01-30T02:33:24;11.90;;;8.53;;
10303;SDS011;5197;48.152;8.590;2023-01-30T02:43:44;11.73;;;7.83;;
10303;SDS011;5197;48.152;8.590;2023-01-30T02:49:47;12.83;;;7.60;;
10303;SDS011;5197;48.152;8.590;2023-01-30T02:51:48;13.40;;;7.70;;
10303;SDS011;5197;48.152;8.590;2023-01-30T02:54:17;13.53;;;7.77;;
10303;SDS011;5197;48.152;8.590;2023-01-30T02:56:45;12.53;;;8.43;;
10303;SDS011;5197;48.152;8.590;2023-01-30T02:59:42;11.23;;;6.53;;
10303;SDS011;5197;48.152;8.590;2023-01-30T03:05:12;10.00;;;6.83;;
10303;SDS011;5197;48.152;8.590;2023-01-30T03:10:33;15.13;;;8.53;;
10303;SDS011;5197;48.152;8.590;2023-01-30T03:13:18;13.23;;;8.20;;
10303;SDS011;5197;48.152;8.590;2023-01-30T03:16:02;14.13;;;8.70;;
10303;SDS011;5197;48.152;8.590;2023-01-30T03:18:35;16.93;;;9.17;;
10303;SDS011;5197;48.152;8.590;2023-01-30T03:21:02;18.67;;;9.80;;
10303;SDS011;5197;48.152;8.590;2023-01-30T03:23:31;19.77;;;9.87;;
10303;SDS011;5197;48.152;8.590;2023-01-30T03:25:58;15.93;;;10.17;;
10303;SDS011;5197;48.152;8.590;2023-01-30T03:28:27;17.67;;;8.97;;
10303;SDS011;5197;48.152;8.590;2023-01-30T03:30:55;15.03;;;8.90;;
10303;SDS011;5197;48.152;8.590;2023-01-30T03:33:22;12.80;;;8.27;;
10303;SDS011;5197;48.152;8.590;2023-01-30T03:35:49;14.83;;;8.73;;
10303;SDS011;5197;48.152;8.590;2023-01-30T03:38:16;13.20;;;7.97;;
10303;SDS011;5197;48.152;8.590;2023-01-30T03:40:45;13.73;;;9.17;;
10303;SDS011;5197;48.152;8.590;2023-01-30T03:43:12;11.70;;;7.87;;
10303;SDS011;5197;48.152;8.590;2023-01-30T03:45:39;14.73;;;8.90;;
10303;SDS011;5197;48.152;8.590;2023-01-30T03:48:06;14.63;;;8.73;;
10303;SDS011;5197;48.152;8.590;2023-01-30T03:50:34;10.07;;;7.50;;
10303;SDS011;5197;48.152;8.590;2023-01-30T03:53:01;9.73;;;6.80;;
10303;SDS011;5197;48.152;8.590;2023-01-30T03:55:27;12.17;;;7.80;;
10303;SDS011;5197;48.152;8.590;2023-01-30T03:57:55;12.43;;;8.47;;
10303;SDS011;5197;48.152;8.590;2023-01-30T04:00:23;12.17;;;7.53;;
10303;SDS011;5197;48.152;8.590;2023-01-30T04:02:50;12.53;;;7.97;;
10303;SDS011;5197;48.152;8.590;2023-01-30T04:05:17;15.07;;;9.20;;
10303;SDS011;5197;48.152;8.590;2023-01-30T04:07:45;14.00;;;8.53;;
10303;SDS011;5197;48.152;8.590;2023-01-30T04:10:11;14.40;;;8.37;;
10303;SDS011;5197;48.152;8.590;2023-01-30T04:12:41;12.20;;;8.53;;
10303;SDS011;5197;48.152;8.590;2023-01-30T04:15:08;14.47;;;8.90;;
10303;SDS011;5197;48.152;8.590;2023-01-30T04:17:36;13.20;;;8.27;;
10303;SDS011;5197;48.152;8.590;2023-01-30T04:20:03;16.60;;;8.80;;
10303;SDS011;5197;48.152;8.590;2023-01-30T04:22:31;10.67;;;7.30;;
10303;SDS011;5197;48.152;8.590;2023-01-30T04:24:57;12.37;;;7.83;;
10303;SDS011;5197;48.152;8.590;2023-01-30T04:27:24;14.90;;;8.00;;
10303;SDS011;5197;48.152;8.590;2023-01-30T04:29:51;14.43;;;8.20;;
10303;SDS011;5197;48.152;8.590;2023-01-30T04:32:18;13.67;;;6.53;;
10303;SDS011;5197;48.152;8.590;2023-01-30T04:34:45;11.10;;;6.87;;
10303;SDS011;5197;48.152;8.590;2023-01-30T04:37:12;12.13;;;7.90;;
10303;SDS011;5197;48.152;8.590;2023-01-30T04:39:39;12.63;;;8.07;;
10303;SDS011;5197;48.152;8.590;2023-01-30T04:42:06;16.27;;;8.67;;
10303;SDS011;5197;48.152;8.590;2023-01-30T04:44:33;16.87;;;9.33;;
10303;SDS011;5197;48.152;8.590;2023-01-30T04:47:00;15.60;;;10.17;;
10303;SDS011;5197;48.152;8.590;2023-01-30T04:49:27;16.80;;;10.37;;
10303;SDS011;5197;48.152;8.590;2023-01-30T04:51:54;17.27;;;9.17;;
10303;SDS011;5197;48.152;8.590;2023-01-30T04:54:21;17.97;;;9.70;;
10303;SDS011;5197;48.152;8.590;2023-01-30T04:56:48;19.47;;;11.27;;
10303;SDS011;5197;48.152;8.590;2023-01-30T04:59:15;15.67;;;9.70;;
10303;SDS011;5197;48.152;8.590;2023-01-30T05:01:42;16.80;;;10.33;;
10303;SDS011;5197;48.152;8.590;2023-01-30T05:04:09;16.13;;;10.17;;
10303;SDS011;5197;48.152;8.590;2023-01-30T05:06:36;17.67;;;10.33;;
10303;SDS011;5197;48.152;8.590;2023-01-30T05:09:03;16.27;;;9.90;;
10303;SDS011;5197;48.152;8.590;2023-01-30T05:11:30;14.87;;;9.77;;
10303;SDS011;5197;48.152;8.590;2023-01-30T05:13:57;18.33;;;9.77;;
10303;SDS011;5197;48.152;8.590;2023-01-30T05:16:25;14.73;;;9.37;;
10303;SDS011;5197;48.152;8.590;2023-01-30T05:18:53;19.50;;;10.00;;
10303;SDS011;5197;48.152;8.590;2023-01-30T05:21:24;15.03;;;9.07;;
10303;SDS011;5197;48.152;8.590;2023-01-30T05:23:53;13.63;;;9.30;;
10303;SDS011;5197;48.152;8.590;2023-01-30T05:26:21;14.17;;;9.50;;
10303;SDS011;5197;48.152;8.590;2023-01-30T05:28:53;13.97;;;8.73;;
10303;SDS011;5197;48.152;8.590;2023-01-30T05:31:22;16.63;;;11.07;;
10303;SDS011;5197;48.152;8.590;2023-01-30T05:33:49;15.43;;;9.67;;
10303;SDS011;5197;48.152;8.590;2023-01-30T05:36:18;16.47;;;10.13;;
10303;SDS011;5197;48.152;8.590;2023-01-30T05:38:46;15.90;;;9.67;;
10303;SDS011;5197;48.152;8.590;2023-01-30T05:41:14;17.17;;;10.37;;
10303;SDS011;5197;48.152;8.590;2023-01-30T05:43:42;16.37;;;9.87;;
10303;SDS011;5197;48.152;8.590;2023-01-30T05:46:12;14.53;;;9.90;;
10303;SDS011;5197;48.152;8.590;2023-01-30T05:48:39;15.77;;;10.50;;
10303;SDS011;5197;48.152;8.590;2023-01-30T05:51:13;20.30;;;11.23;;
10303;SDS011;5197;48.152;8.590;2023-01-30T05:53:42;17.50;;;10.33;;
10303;SDS011;5197;48.152;8.590;2023-01-30T05:56:09;18.43;;;11.37;;
10303;SDS011;5197;48.152;8.590;2023-01-30T05:58:36;18.90;;;10.77;;
10303;SDS011;5197;48.152;8.590;2023-01-30T06:01:05;17.07;;;11.13;;
10303;SDS011;5197;48.152;8.590;2023-01-30T06:03:35;19.10;;;11.67;;
10303;SDS011;5197;48.152;8.590;2023-01-30T06:06:02;19.33;;;11.90;;
10303;SDS011;5197;48.152;8.590;2023-01-30T06:08:31;15.63;;;9.77;;
10303;SDS011;5197;48.152;8.590;2023-01-30T06:11:01;21.27;;;11.17;;
10303;SDS011;5197;48.152;8.590;2023-01-30T06:13:30;15.83;;;10.17;;
10303;SDS011;5197;48.152;8.590;2023-01-30T06:15:57;17.63;;;10.97;;
10303;SDS011;5197;48.152;8.590;2023-01-30T06:18:24;18.00;;;11.57;;
10303;SDS011;5197;48.152;8.590;2023-01-30T06:20:51;19.60;;;11.70;;
10303;SDS011;5197;48.152;8.590;2023-01-30T06:23:19;19.77;;;12.43;;
10303;SDS011;5197;48.152;8.590;2023-01-30T06:25:49;19.70;;;11.87;;
10303;SDS011;5197;48.152;8.590;2023-01-30T06:28:17;19.07;;;12.17;;
10303;SDS011;5197;48.152;8.590;2023-01-30T06:30:45;16.53;;;10.33;;
10303;SDS011;5197;48.152;8.590;2023-01-30T06:33:12;16.83;;;10.70;;
10303;SDS011;5197;48.152;8.590;2023-01-30T06:35:40;15.83;;;9.70;;
10303;SDS011;5197;48.152;8.590;2023-01-30T06:38:08;20.33;;;11.10;;
10303;SDS011;5197;48.152;8.590;2023-01-30T06:40:37;18.67;;;10.40;;
10303;SDS011;5197;48.152;8.590;2023-01-30T06:43:04;18.60;;;11.40;;
10303;SDS011;5197;48.152;8.590;2023-01-30T06:45:31;13.13;;;9.33;;
10303;SDS011;5197;48.152;8.590;2023-01-30T06:47:58;14.17;;;8.70;;
10303;SDS011;5197;48.152;8.590;2023-01-30T06:50:26;16.53;;;8.37;;
10303;SDS011;5197;48.152;8.590;2023-01-30T06:52:55;15.33;;;8.77;;
10303;SDS011;5197;48.152;8.590;2023-01-30T06:55:24;14.17;;;8.47;;
10303;SDS011;5197;48.152;8.590;2023-01-30T07:00:28;11.57;;;8.03;;
10303;SDS011;5197;48.152;8.590;2023-01-30T07:02:56;14.00;;;8.97;;
10303;SDS011;5197;48.152;8.590;2023-01-30T07:05:23;12.43;;;7.63;;
10303;SDS011;5197;48.152;8.590;2023-01-30T07:07:50;15.47;;;9.40;;
10303;SDS011;5197;48.152;8.590;2023-01-30T07:10:18;18.47;;;8.13;;
10303;SDS011;5197;48.152;8.590;2023-01-30T07:12:45;15.40;;;9.23;;
10303;SDS011;5197;48.152;8.590;2023-01-30T07:15:13;12.63;;;8.27;;
10303;SDS011;5197;48.152;8.590;2023-01-30T07:17:40;10.20;;;6.90;;
10303;SDS011;5197;48.152;8.590;2023-01-30T07:20:08;10.33;;;7.77;;
10303;SDS011;5197;48.152;8.590;2023-01-30T07:22:36;10.87;;;7.20;;
10303;SDS011;5197;48.152;8.590;2023-01-30T07:25:04;14.63;;;8.13;;
10303;SDS011;5197;48.152;8.590;2023-01-30T07:27:31;10.43;;;7.20;;
10303;SDS011;5197;48.152;8.590;2023-01-30T07:29:59;11.27;;;7.73;;
10303;SDS011;5197;48.152;8.590;2023-01-30T07:32:26;11.90;;;7.93;;
10303;SDS011;5197;48.152;8.590;2023-01-30T07:34:53;10.23;;;7.57;;
10303;SDS011;5197;48.152;8.590;2023-01-30T07:37:20;13.00;;;7.90;;
10303;SDS011;5197;48.152;8.590;2023-01-30T07:39:47;12.40;;;8.00;;
10303;SDS011;5197;48.152;8.590;2023-01-30T07:42:14;12.87;;;7.90;;
10303;SDS011;5197;48.152;8.590;2023-01-30T07:44:41;10.33;;;7.40;;
10303;SDS011;5197;48.152;8.590;2023-01-30T07:47:08;12.33;;;7.97;;
10303;SDS011;5197;48.152;8.590;2023-01-30T07:49:35;11.17;;;8.27;;
10303;SDS011;5197;48.152;8.590;2023-01-30T07:52:02;11.20;;;7.87;;
10303;SDS011;5197;48.152;8.590;2023-01-30T07:54:29;12.07;;;8.00;;
10303;SDS011;5197;48.152;8.590;2023-01-30T07:56:56;10.73;;;7.90;;
10303;SDS011;5197;48.152;8.590;2023-01-30T07:59:23;11.23;;;7.90;;
10303;SDS011;5197;48.152;8.590;2023-01-30T08:01:50;10.70;;;7.30;;
10303;SDS011;5197;48.152;8.590;2023-01-30T08:04:17;11.30;;;6.67;;
10303;SDS011;5197;48.152;8.590;2023-01-30T08:06:44;7.77;;;5.63;;
10303;SDS011;5197;48.152;8.590;2023-01-30T08:09:11;8.63;;;5.87;;
10303;SDS011;5197;48.152;8.590;2023-01-30T08:11:38;7.57;;;5.70;;
10303;SDS011;5197;48.152;8.590;2023-01-30T08:14:05;7.23;;;5.83;;
10303;SDS011;5197;48.152;8.590;2023-01-30T08:16:32;8.63;;;5.63;;
10303;SDS011;5197;48.152;8.590;2023-01-30T08:19:00;10.73;;;6.40;;
10303;SDS011;5197;48.152;8.590;2023-01-30T08:21:29;10.63;;;7.57;;
10303;SDS011;5197;48.152;8.590;2023-01-30T08:23:56;8.57;;;5.97;;
10303;SDS011;5197;48.152;8.590;2023-01-30T08:26:26;9.00;;;6.67;;
10303;SDS011;5197;48.152;8.590;2023-01-30T08:28:53;10.70;;;7.47;;
10303;SDS011;5197;48.152;8.590;2023-01-30T08:31:21;9.63;;;5.63;;
10303;SDS011;5197;48.152;8.590;2023-01-30T08:33:48;6.37;;;4.93;;
10303;SDS011;5197;48.152;8.590;2023-01-30T08:36:15;7.13;;;5.23;;
10303;SDS011;5197;48.152;8.590;2023-01-30T08:38:42;6.00;;;4.57;;
10303;SDS011;5197;48.152;8.590;2023-01-30T08:41:09;6.17;;;4.93;;
10303;SDS011;5197;48.152;8.590;2023-01-30T08:43:36;7.00;;;4.77;;
10303;SDS011;5197;48.152;8.590;2023-01-30T08:46:04;8.43;;;5.60;;
10303;SDS011;5197;48.152;8.590;2023-01-30T08:48:31;7.70;;;5.70;;
10303;SDS011;5197;48.152;8.590;2023-01-30T08:51:14;8.40;;;6.00;;
10303;SDS011;5197;48.152;8.590;2023-01-30T08:53:41;5.87;;;5.07;;
10303;SDS011;5197;48.152;8.590;2023-01-30T08:56:08;7.03;;;5.17;;
10303;SDS011;5197;48.152;8.590;2023-01-30T08:58:35;6.87;;;5.10;;
10303;SDS011;5197;48.152;8.590;2023-01-30T09:01:05;6.20;;;5.37;;
10303;SDS011;5197;48.152;8.590;2023-01-30T09:03:32;5.67;;;4.53;;
10303;SDS011;5197;48.152;8.590;2023-01-30T09:05:59;5.60;;;4.60;;
10303;SDS011;5197;48.152;8.590;2023-01-30T09:08:27;6.33;;;5.10;;
10303;SDS011;5197;48.152;8.590;2023-01-30T09:10:58;7.50;;;5.13;;
10303;SDS011;5197;48.152;8.590;2023-01-30T09:13:29;5.40;;;4.60;;
10303;SDS011;5197;48.152;8.590;2023-01-30T09:15:57;5.93;;;5.03;;
10303;SDS011;5197;48.152;8.590;2023-01-30T09:18:24;6.27;;;4.80;;
10303;SDS011;5197;48.152;8.590;2023-01-30T09:20:51;6.47;;;5.50;;
10303;SDS011;5197;48.152;8.590;2023-01-30T09:23:19;6.97;;;4.97;;
10303;SDS011;5197;48.152;8.590;2023-01-30T09:25:46;8.93;;;6.00;;
10303;SDS011;5197;48.152;8.590;2023-01-30T09:28:13;8.00;;;5.70;;
10303;SDS011;5197;48.152;8.590;2023-01-30T09:30:40;10.37;;;7.50;;
10303;SDS011;5197;48.152;8.590;2023-01-30T09:33:07;5.50;;;4.80;;
10303;SDS011;5197;48.152;8.590;2023-01-30T09:35:34;5.90;;;4.87;;
10303;SDS011;5197;48.152;8.590;2023-01-30T09:38:01;5.47;;;4.23;;
10303;SDS011;5197;48.152;8.590;2023-01-30T09:40:30;5.87;;;4.67;;
10303;SDS011;5197;48.152;8.590;2023-01-30T09:43:07;5.17;;;4.43;;
10303;SDS011;5197;48.152;8.590;2023-01-30T09:48:28;4.20;;;3.67;;
10303;SDS011;5197;48.152;8.590;2023-01-30T09:53:38;3.30;;;3.00;;
10303;SDS011;5197;48.152;8.590;2023-01-30T09:56:11;3.00;;;2.67;;
10303;SDS011;5197;48.152;8.590;2023-01-30T10:03:58;2.53;;;2.30;;
10303;SDS011;5197;48.152;8.590;2023-01-30T10:06:35;2.73;;;2.37;;
10303;SDS011;5197;48.152;8.590;2023-01-30T10:09:20;3.37;;;2.80;;
10303;SDS011;5197;48.152;8.590;2023-01-30T10:12:20;2.90;;;2.67;;
10303;SDS011;5197;48.152;8.590;2023-01-30T10:15:07;2.77;;;2.40;;
10303;SDS011;5197;48.152;8.590;2023-01-30T10:25:44;3.70;;;3.03;;
10303;SDS011;5197;48.152;8.590;2023-01-30T10:28:25;3.77;;;3.20;;
10303;SDS011;5197;48.152;8.590;2023-01-30T10:31:17;3.73;;;3.43;;
10303;SDS011;5197;48.152;8.590;2023-01-30T10:36:27;9.00;;;3.00;;
10303;SDS011;5197;48.152;8.590;2023-01-30T10:39:00;4.97;;;2.80;;
10303;SDS011;5197;48.152;8.590;2023-01-30T10:41:34;3.27;;;2.97;;
10303;SDS011;5197;48.152;8.590;2023-01-30T10:49:15;15.57;;;3.60;;
10303;SDS011;5197;48.152;8.590;2023-01-30T10:57:44;4.47;;;4.03;;
10303;SDS011;5197;48.152;8.590;2023-01-30T11:00:30;4.53;;;3.90;;
10303;SDS011;5197;48.152;8.590;2023-01-30T11:05:55;9.30;;;4.90;;
10303;SDS011;5197;48.152;8.590;2023-01-30T11:08:33;9.27;;;5.37;;
10303;SDS011;5197;48.152;8.590;2023-01-30T11:11:12;5.90;;;5.10;;
10303;SDS011;5197;48.152;8.590;2023-01-30T11:14:00;12.57;;;6.50;;
10303;SDS011;5197;48.152;8.590;2023-01-30T11:16:32;10.87;;;6.37;;
10303;SDS011;5197;48.152;8.590;2023-01-30T11:19:08;23.20;;;8.57;;
10303;SDS011;5197;48.152;8.590;2023-01-30T11:21:50;10.50;;;6.20;;
10303;SDS011;5197;48.152;8.590;2023-01-30T11:24:21;12.57;;;6.93;;
10303;SDS011;5197;48.152;8.590;2023-01-30T11:27:23;7.90;;;6.37;;
10303;SDS011;5197;48.152;8.590;2023-01-30T11:30:05;7.70;;;6.27;;
10303;SDS011;5197;48.152;8.590;2023-01-30T11:32:40;9.20;;;7.30;;
10303;SDS011;5197;48.152;8.590;2023-01-30T11:37:39;9.10;;;6.23;;
10303;SDS011;5197;48.152;8.590;2023-01-30T11:40:18;7.67;;;6.80;;
10303;SDS011;5197;48.152;8.590;2023-01-30T11:43:01;7.67;;;6.53;;
10303;SDS011;5197;48.152;8.590;2023-01-30T11:45:37;9.17;;;6.43;;
10303;SDS011;5197;48.152;8.590;2023-01-30T11:48:11;7.53;;;6.00;;
10303;SDS011;5197;48.152;8.590;2023-01-30T11:51:12;8.20;;;6.57;;
10303;SDS011;5197;48.152;8.590;2023-01-30T11:53:46;12.60;;;6.57;;
10303;SDS011;5197;48.152;8.590;2023-01-30T11:56:35;9.67;;;7.03;;
10303;SDS011;5197;48.152;8.590;2023-01-30T11:59:06;11.33;;;6.83;;
10303;SDS011;5197;48.152;8.590;2023-01-30T12:04:33;22.43;;;8.47;;
10303;SDS011;5197;48.152;8.590;2023-01-30T12:07:09;13.77;;;7.87;;
10303;SDS011;5197;48.152;8.590;2023-01-30T12:09:44;11.00;;;7.40;;
10303;SDS011;5197;48.152;8.590;2023-01-30T12:12:24;14.27;;;7.03;;
10303;SDS011;5197;48.152;8.590;2023-01-30T12:15:39;8.87;;;7.33;;
10303;SDS011;5197;48.152;8.590;2023-01-30T12:17:56;9.77;;;7.80;;
10303;SDS011;5197;48.152;8.590;2023-01-30T12:20:57;8.57;;;6.73;;
10303;SDS011;5197;48.152;8.590;2023-01-30T12:31:56;9.00;;;7.03;;
10303;SDS011;5197;48.152;8.590;2023-01-30T12:34:30;13.00;;;8.67;;
10303;SDS011;5197;48.152;8.590;2023-01-30T12:53:47;3.20;;;2.90;;
10303;SDS011;5197;48.152;8.590;2023-01-30T12:56:42;3.10;;;2.80;;
10303;SDS011;5197;48.152;8.590;2023-01-30T13:05:10;2.37;;;2.20;;
10303;SDS011;5197;48.152;8.590;2023-01-30T13:10:42;2.57;;;2.37;;
10303;SDS011;5197;48.152;8.590;2023-01-30T13:13:33;2.90;;;2.67;;
10303;SDS011;5197;48.152;8.590;2023-01-30T13:21:16;2.50;;;2.30;;
10303;SDS011;5197;48.152;8.590;2023-01-30T13:24:05;3.63;;;2.63;;
10303;SDS011;5197;48.152;8.590;2023-01-30T13:27:08;2.43;;;2.23;;
10303;SDS011;5197;48.152;8.590;2023-01-30T13:29:42;2.20;;;2.07;;
10303;SDS011;5197;48.152;8.590;2023-01-30T13:32:13;2.63;;;2.30;;
10303;SDS011;5197;48.152;8.590;2023-01-30T13:35:02;10.23;;;6.30;;
10303;SDS011;5197;48.152;8.590;2023-01-30T13:37:32;3.77;;;2.67;;
10303;SDS011;5197;48.152;8.590;2023-01-30T13:40:03;2.30;;;2.10;;
10303;SDS011;5197;48.152;8.590;2023-01-30T13:42:39;2.17;;;2.07;;
10303;SDS011;5197;48.152;8.590;2023-01-30T13:45:15;2.40;;;1.93;;
10303;SDS011;5197;48.152;8.590;2023-01-30T13:54:11;2.77;;;2.57;;
10303;SDS011;5197;48.152;8.590;2023-01-30T14:08:23;2.23;;;2.13;;
10303;SDS011;5197;48.152;8.590;2023-01-30T14:10:52;2.37;;;1.90;;
10303;SDS011;5197;48.152;8.590;2023-01-30T14:13:21;2.33;;;2.20;;
10303;SDS011;5197;48.152;8.590;2023-01-30T14:21:18;2.00;;;1.90;;
10303;SDS011;5197;48.152;8.590;2023-01-30T14:23:55;3.57;;;3.27;;
10303;SDS011;5197;48.152;8.590;2023-01-30T14:34:41;4.33;;;3.13;;
10303;SDS011;5197;48.152;8.590;2023-01-30T14:39:55;3.40;;;2.80;;
10303;SDS011;5197;48.152;8.590;2023-01-30T14:42:24;8.00;;;5.40;;
10303;SDS011;5197;48.152;8.590;2023-01-30T14:45:01;2.40;;;2.20;;
10303;SDS011;5197;48.152;8.590;2023-01-30T14:47:40;8.23;;;5.10;;
10303;SDS011;5197;48.152;8.590;2023-01-30T14:50:18;7.73;;;5.47;;
10303;SDS011;5197;48.152;8.590;2023-01-30T14:52:48;10.23;;;4.67;;
10303;SDS011;5197;48.152;8.590;2023-01-30T14:55:20;7.67;;;4.60;;
10303;SDS011;5197;48.152;8.590;2023-01-30T14:57:53;9.00;;;4.03;;
10303;SDS011;5197;48.152;8.590;2023-01-30T15:00:33;9.23;;;4.60;;
10303;SDS011;5197;48.152;8.590;2023-01-30T15:03:06;11.23;;;5.80;;
10303;SDS011;5197;48.152;8.590;2023-01-30T15:05:42;8.90;;;5.57;;
10303;SDS011;5197;48.152;8.590;2023-01-30T15:08:14;10.83;;;5.77;;
10303;SDS011;5197;48.152;8.590;2023-01-30T15:22:05;3.33;;;2.60;;
10303;SDS011;5197;48.152;8.590;2023-01-30T15:24:44;3.27;;;2.97;;
10303;SDS011;5197;48.152;8.590;2023-01-30T15:33:09;3.27;;;2.03;;
10303;SDS011;5197;48.152;8.590;2023-01-30T15:35:40;5.17;;;3.90;;
10303;SDS011;5197;48.152;8.590;2023-01-30T15:38:23;5.07;;;2.83;;
10303;SDS011;5197;48.152;8.590;2023-01-30T15:40:54;2.83;;;2.57;;
10303;SDS011;5197;48.152;8.590;2023-01-30T15:43:33;2.63;;;2.43;;
10303;SDS011;5197;48.152;8.590;2023-01-30T15:49:08;6.77;;;3.43;;
10303;SDS011;5197;48.152;8.590;2023-01-30T15:52:01;3.20;;;2.50;;
10303;SDS011;5197;48.152;8.590;2023-01-30T15:54:29;3.10;;;2.80;;
10303;SDS011;5197;48.152;8.590;2023-01-30T15:56:57;3.47;;;1.73;;
10303;SDS011;5197;48.152;8.590;2023-01-30T16:02:13;5.57;;;4.20;;
10303;SDS011;5197;48.152;8.590;2023-01-30T16:04:46;21.73;;;7.83;;
10303;SDS011;5197;48.152;8.590;2023-01-30T16:07:14;5.13;;;2.00;;
10303;SDS011;5197;48.152;8.590;2023-01-30T16:09:52;3.63;;;3.07;;
10303;SDS011;5197;48.152;8.590;2023-01-30T16:12:43;23.80;;;11.67;;
10303;SDS011;5197;48.152;8.590;2023-01-30T16:15:25;23.60;;;13.07;;
10303;SDS011;5197;48.152;8.590;2023-01-30T16:20:54;9.87;;;6.27;;
10303;SDS011;5197;48.152;8.590;2023-01-30T16:23:36;15.80;;;7.97;;
10303;SDS011;5197;48.152;8.590;2023-01-30T16:26:20;3.63;;;3.33;;
10303;SDS011;5197;48.152;8.590;2023-01-30T16:28:48;3.87;;;2.77;;
10303;SDS011;5197;48.152;8.590;2023-01-30T16:31:23;3.13;;;2.10;;
10303;SDS011;5197;48.152;8.590;2023-01-30T16:33:52;2.40;;;1.73;;
10303;SDS011;5197;48.152;8.590;2023-01-30T16:38:50;3.30;;;1.67;;
10303;SDS011;5197;48.152;8.590;2023-01-30T16:44:06;2.00;;;1.80;;
10303;SDS011;5197;48.152;8.590;2023-01-30T16:49:35;2.20;;;2.00;;
10303;SDS011;5197;48.152;8.590;2023-01-30T16:54:36;1.97;;;1.40;;
10303;SDS011;5197;48.152;8.590;2023-01-30T16:57:06;1.87;;;1.70;;
10303;SDS011;5197;48.152;8.590;2023-01-30T16:59:43;1.90;;;1.80;;
10303;SDS011;5197;48.152;8.590;2023-01-30T17:02:22;2.50;;;2.30;;
10303;SDS011;5197;48.152;8.590;2023-01-30T17:07:51;1.37;;;1.27;;
10303;SDS011;5197;48.152;8.590;2023-01-30T17:12:54;4.77;;;3.50;;
10303;SDS011;5197;48.152;8.590;2023-01-30T17:15:26;8.80;;;4.57;;
10303;SDS011;5197;48.152;8.590;2023-01-30T17:17:55;4.70;;;3.90;;
10303;SDS011;5197;48.152;8.590;2023-01-30T17:20:22;4.27;;;3.77;;
10303;SDS011;5197;48.152;8.590;2023-01-30T17:23:00;4.17;;;3.50;;
10303;SDS011;5197;48.152;8.590;2023-01-30T17:28:01;5.37;;;4.87;;
10303;SDS011;5197;48.152;8.590;2023-01-30T17:30:28;6.87;;;5.80;;
10303;SDS011;5197;48.152;8.590;2023-01-30T17:32:56;4.27;;;3.87;;
10303;SDS011;5197;48.152;8.590;2023-01-30T17:35:23;5.10;;;4.57;;
10303;SDS011;5197;48.152;8.590;2023-01-30T17:37:50;8.97;;;7.00;;
10303;SDS011;5197;48.152;8.590;2023-01-30T17:40:34;6.43;;;5.30;;
10303;SDS011;5197;48.152;8.590;2023-01-30T17:43:04;6.20;;;4.40;;
10303;SDS011;5197;48.152;8.590;2023-01-30T17:45:31;6.43;;;5.40;;
10303;SDS011;5197;48.152;8.590;2023-01-30T17:47:59;9.47;;;7.13;;
10303;SDS011;5197;48.152;8.590;2023-01-30T17:50:27;7.47;;;6.07;;
10303;SDS011;5197;48.152;8.590;2023-01-30T17:52:56;5.87;;;4.97;;
10303;SDS011;5197;48.152;8.590;2023-01-30T17:55:24;5.17;;;4.30;;
10303;SDS011;5197;48.152;8.590;2023-01-30T17:57:51;5.00;;;3.60;;
10303;SDS011;5197;48.152;8.590;2023-01-30T18:00:19;3.70;;;3.23;;
10303;SDS011;5197;48.152;8.590;2023-01-30T18:02:48;4.97;;;4.07;;
10303;SDS011;5197;48.152;8.590;2023-01-30T18:05:15;4.60;;;3.83;;
10303;SDS011;5197;48.152;8.590;2023-01-30T18:07:43;3.37;;;3.07;;
10303;SDS011;5197;48.152;8.590;2023-01-30T18:10:15;6.10;;;4.27;;
10303;SDS011;5197;48.152;8.590;2023-01-30T18:12:44;3.93;;;3.63;;
10303;SDS011;5197;48.152;8.590;2023-01-30T18:15:16;6.90;;;5.73;;
10303;SDS011;5197;48.152;8.590;2023-01-30T18:17:45;8.60;;;6.40;;
10303;SDS011;5197;48.152;8.590;2023-01-30T18:20:15;6.67;;;5.37;;
10303;SDS011;5197;48.152;8.590;2023-01-30T18:22:45;23.43;;;17.07;;
10303;SDS011;5197;48.152;8.590;2023-01-30T18:25:15;22.73;;;15.27;;